Nearby METAR Reports

 

KHIF - Hill Afb/Ogden, Utah, USA
Distance from station: ENE 6mi, 9km
Updated: Sun, 15-May-2022 9:58pm MDT
Clear
Clear
 Wind from ESE
Wind: ESE 10 mph , 17 km/h
Temperature: 68°F , 20°C
Dew Point: 36°F , 2°C
Humidity: 30%
Barometer: 29.95 inHg , 1014.2 hPa
Clouds: Clear
Visibility: 10 miles , 16 km
2022/05/16 03:58 KHIF 160358Z AUTO 11009KT 10SM CLR 20/02 A2995 RMK AO2 SLP092 T01960020
KOGD - Ogden, Utah, USA
Distance from station: NNE 9mi, 14km
Updated: Sun, 15-May-2022 9:53pm MDT
Clear
Clear
 Wind from NE
Wind: NE 3 mph , 6 km/h
Temperature: 72°F , 22°C
Dew Point: 37°F , 3°C
Humidity: 29%
Barometer: 29.94 inHg , 1013.9 hPa
Clouds: Clear
Visibility: 10 miles , 16 km
2022/05/16 03:53 KOGD 160353Z AUTO 05003KT 10SM CLR 22/03 A2994 RMK AO2 SLP086 T02170028 $
 
KSLC - Salt Lake City, Utah, USA
Distance from station: SSE 21mi, 34km
Updated: Sun, 15-May-2022 9:54pm MDT
Mostly cloudy
Mostly cloudy
 Wind from calm
Wind: Calm
Temperature: 73°F , 23°C
Dew Point: 46°F , 8°C
Humidity: 38%
Barometer: 29.93 inHg , 1013.5 hPa
Clouds: Mostly cloudy
Visibility: 10 miles , 16 km
Cloud details: Few Clouds 10000 ft
Mostly cloudy 16000 ft
2022/05/16 03:54 KSLC 160354Z 00000KT 10SM FEW100 BKN160 23/08 A2993 RMK AO2 SLP088 T02280078 $
KLGU - Logan, Utah, USA
Distance from station: NNE 50mi, 80km
Updated: Sun, 15-May-2022 9:51pm MDT
Clear
Clear
 Wind from S
Wind: S 6 mph , 9 km/h
Temperature: 64°F , 18°C
Dew Point: 46°F , 8°C
Humidity: 52%
Barometer: 29.97 inHg , 1014.9 hPa
Clouds: Clear
Visibility: 10 miles , 16 km
2022/05/16 03:51 KLGU 160351Z AUTO 19005KT 10SM CLR 18/08 A2997 RMK AO2 SLP112 T01830078
 
K36U - Heber/Russ Mcdon, Utah, USA
Distance from station: SE 53mi, 85km
Updated: Wed, 11-Oct-2017 6:50pm MDT
NOT Current
Clear
Clear
 Wind from SSW
Wind: SSW 10 mph , 17 km/h, Gust: 18 mph , 30 km/h
Temperature: 63°F , 17°C
Dew Point: 16°F , -9°C
Humidity: 16%
Barometer: 29.87 inHg , 1011.5 hPa
Clouds: Clear
Visibility: 10 miles , 16 km
2017/10/12 00:50 K36U 120050Z AUTO 21009G16KT 10SM CLR 17/M09 A2987 RMK AO2
KEVW - Evanston, Wyoming, USA
Distance from station: ENE 55mi, 89km
Updated: Sun, 15-May-2022 9:53pm MDT
Clear
Clear
 Wind from NE
Wind: NE 6 mph , 9 km/h
Temperature: 64°F , 18°C
Dew Point: 25°F , -4°C
Humidity: 22%
Barometer: 30.16 inHg , 1021.3 hPa
Clouds: Clear
Visibility: 10 miles , 16 km
2022/05/16 03:53 KEVW 160353Z AUTO 04005KT 10SM CLR 18/M04 A3016 RMK AO2 SLP127 T01781044
 
KPVU - Provo Muni, Utah, USA
Distance from station: SSE 62mi, 100km
Updated: Sun, 15-May-2022 9:56pm MDT
Clear
Clear
 Wind from SSE
Wind: SSE 6 mph , 9 km/h
Temperature: 72°F , 22°C
Dew Point: 37°F , 3°C
Humidity: 29%
Barometer: 29.97 inHg , 1014.9 hPa
Clouds: Clear
Visibility: 10 miles , 16 km
2022/05/16 03:56 KPVU 160356Z AUTO 15005KT 10SM CLR 22/03 A2997 RMK AO2 SLP102 T02220033
KDPG - Dugway Prvg Grou, Utah, USA
Distance from station: SW 75mi, 121km
Updated: Fri, 13-May-2022 11:50am MDT
NOT Current
Mostly cloudy
Mostly cloudy
 Wind from NW
Wind: NW 2 mph , 4 km/h
Temperature: 63°F , 17°C
Dew Point: 23°F , -5°C
Humidity: 22%
Barometer: 30.21 inHg , 1023 hPa
Clouds: Mostly cloudy
Visibility: 50 miles , 80 km
Cloud details: Few Clouds 9000 ft
Mostly cloudy 22000 ft
2022/05/13 17:50 KDPG 131750Z 32002KT 50SM FEW090 BKN220 17/M05 A3021 RMK SLP208 T01701053 10181 21009 50000 LAST
 
KENV - Wendover (aut), Utah, USA
Distance from station: WSW 105mi, 169km
Updated: Sun, 15-May-2022 9:56pm MDT
Clear
Clear
 Wind from WNW
Wind: WNW 6 mph , 9 km/h
Temperature: 70°F , 21°C
Dew Point: 37°F , 3°C
Humidity: 31%
Barometer: 29.93 inHg , 1013.5 hPa
Clouds: Clear
Visibility: 10 miles , 16 km
2022/05/16 03:56 KENV 160356Z AUTO 29005KT 10SM CLR 21/03 A2993 RMK AO2 SLP103 T02110028
KPUC - Price, Utah, USA
Distance from station: SE 123mi, 197km
Updated: Sun, 15-May-2022 9:53pm MDT
Clear
Clear
 Wind from NE
Wind: NE 6 mph , 9 km/h
Temperature: 64°F , 18°C
Dew Point: 18°F , -8°C
Humidity: 16%
Barometer: 30.06 inHg , 1017.9 hPa
Clouds: Clear
Visibility: 10 miles , 16 km
2022/05/16 03:53 KPUC 160353Z AUTO 04005KT 10SM CLR 18/M08 A3006 RMK AO2 SLP106 T01831078
 
KPIH - Pocatello, Idaho, USA
Distance from station: NNW 130mi, 208km
Updated: Sun, 15-May-2022 9:53pm MDT
Clear
Clear
 
Temperature: 63°F , 17°C
Dew Point: 43°F , 6°C
Humidity: 49%
Barometer: 29.96 inHg , 1014.6 hPa
Clouds: Clear
Visibility: 10 miles , 16 km
2022/05/16 03:53 KPIH 160353Z 10SM CLR 17/06 A2996 RMK AO2 SLP111 T01720061
KBYI - Burley, Idaho, USA
Distance from station: NW 134mi, 216km
Updated: Sun, 15-May-2022 9:53pm MDT
Mostly cloudy
Mostly cloudy
 Wind from SE
Wind: SE 8 mph , 13 km/h
Temperature: 64°F , 18°C
Dew Point: 45°F , 7°C
Humidity: 49%
Barometer: 29.90 inHg , 1012.5 hPa
Clouds: Mostly cloudy
Visibility: 10 miles , 16 km
Cloud details: Few Clouds 6500 ft
Few Clouds 8000 ft
Mostly cloudy 12000 ft
2022/05/16 03:53 KBYI 160353Z AUTO 14007KT 10SM FEW065 FEW080 BKN120 18/07 A2990 RMK AO2 SLP092 T01780067
 
KVEL - Vernal, Utah, USA
Distance from station: ESE 140mi, 226km
Updated: Sun, 15-May-2022 9:53pm MDT
Clear
Clear
 Wind from WNW
Wind: WNW 6 mph , 9 km/h
Temperature: 64°F , 18°C
Dew Point: 34°F , 1°C
Humidity: 32%
Barometer: 30.04 inHg , 1017.3 hPa
Clouds: Clear
Visibility: 10 miles , 16 km
2022/05/16 03:53 KVEL 160353Z AUTO 30005KT 10SM CLR 18/01 A3004 RMK AO2 SLP114 T01830006 PWINO
KBPI - Big Piney, Wyoming, USA
Distance from station: NE 145mi, 234km
Updated: Sun, 15-May-2022 9:53pm MDT
Clear
Clear
 Wind from N
Wind: N 10 mph , 17 km/h
Temperature: 48°F , 9°C
Wind Chill: 44°F , 7°C
Dew Point: 28°F , -2°C
Humidity: 46%
Barometer: 30.18 inHg , 1022 hPa
Clouds: Clear
Visibility: 10 miles , 16 km
2022/05/16 03:53 KBPI 160353Z AUTO 01009KT 10SM CLR 09/M02 A3018 RMK AO2 SLP160 T00891022